sensor_id;sensor_type;location;lat;lon;timestamp;pressure;altitude;pressure_sealevel;temperature;humidity
49723;BME280;43484;43.608;1.458;2023-10-19T00:00:41;97691.53;;;19.21;100.00
49723;BME280;43484;43.608;1.458;2023-10-19T00:03:12;97681.34;;;19.16;100.00
49723;BME280;43484;43.608;1.458;2023-10-19T00:05:40;97670.13;;;19.16;100.00
49723;BME280;43484;43.608;1.458;2023-10-19T00:08:08;97676.28;;;19.13;100.00
49723;BME280;43484;43.608;1.458;2023-10-19T00:10:42;97668.56;;;19.12;100.00
49723;BME280;43484;43.608;1.458;2023-10-19T00:13:11;97673.16;;;19.05;100.00
49723;BME280;43484;43.608;1.458;2023-10-19T00:15:39;97670.56;;;19.05;100.00
49723;BME280;43484;43.608;1.458;2023-10-19T00:18:07;97655.81;;;19.06;100.00
49723;BME280;43484;43.608;1.458;2023-10-19T00:21:00;97643.28;;;18.95;100.00
49723;BME280;43484;43.608;1.458;2023-10-19T00:23:37;97617.44;;;18.92;100.00
49723;BME280;43484;43.608;1.458;2023-10-19T00:26:06;97610.38;;;18.96;100.00
49723;BME280;43484;43.608;1.458;2023-10-19T00:28:42;97607.75;;;18.97;100.00
49723;BME280;43484;43.608;1.458;2023-10-19T00:31:12;97602.59;;;18.96;100.00
49723;BME280;43484;43.608;1.458;2023-10-19T00:33:40;97590.47;;;18.96;100.00
49723;BME280;43484;43.608;1.458;2023-10-19T00:36:08;97591.31;;;18.97;100.00
49723;BME280;43484;43.608;1.458;2023-10-19T00:38:35;97583.53;;;18.97;100.00
49723;BME280;43484;43.608;1.458;2023-10-19T00:41:03;97573.16;;;18.97;100.00
49723;BME280;43484;43.608;1.458;2023-10-19T00:43:42;97568.09;;;18.94;100.00
49723;BME280;43484;43.608;1.458;2023-10-19T00:46:17;97557.72;;;18.94;100.00
49723;BME280;43484;43.608;1.458;2023-10-19T00:48:49;97540.50;;;18.91;100.00
49723;BME280;43484;43.608;1.458;2023-10-19T00:51:22;97516.28;;;18.91;100.00
49723;BME280;43484;43.608;1.458;2023-10-19T00:54:21;97490.56;;;18.86;100.00
49723;BME280;43484;43.608;1.458;2023-10-19T00:57:01;97491.47;;;18.85;100.00
49723;BME280;43484;43.608;1.458;2023-10-19T00:59:41;97498.00;;;18.73;100.00
49723;BME280;43484;43.608;1.458;2023-10-19T01:02:16;97496.34;;;18.71;100.00
49723;BME280;43484;43.608;1.458;2023-10-19T01:05:09;97507.38;;;18.76;100.00
49723;BME280;43484;43.608;1.458;2023-10-19T01:07:40;97493.56;;;18.75;100.00
49723;BME280;43484;43.608;1.458;2023-10-19T01:10:08;97492.03;;;18.71;100.00
49723;BME280;43484;43.608;1.458;2023-10-19T01:12:37;97487.69;;;18.72;100.00
49723;BME280;43484;43.608;1.458;2023-10-19T01:17:37;97468.56;;;18.74;100.00
49723;BME280;43484;43.608;1.458;2023-10-19T01:20:08;97482.31;;;18.77;100.00
49723;BME280;43484;43.608;1.458;2023-10-19T01:23:10;97494.88;;;18.86;100.00
49723;BME280;43484;43.608;1.458;2023-10-19T01:25:56;97500.13;;;18.84;100.00
49723;BME280;43484;43.608;1.458;2023-10-19T01:28:31;97498.47;;;18.83;100.00
49723;BME280;43484;43.608;1.458;2023-10-19T01:31:21;97490.63;;;18.85;100.00
49723;BME280;43484;43.608;1.458;2023-10-19T01:33:58;97487.81;;;18.89;100.00
49723;BME280;43484;43.608;1.458;2023-10-19T01:36:27;97473.97;;;18.90;100.00
49723;BME280;43484;43.608;1.458;2023-10-19T01:38:55;97473.84;;;18.93;100.00
49723;BME280;43484;43.608;1.458;2023-10-19T01:41:24;97463.59;;;18.90;100.00
49723;BME280;43484;43.608;1.458;2023-10-19T01:43:53;97466.75;;;18.97;100.00
49723;BME280;43484;43.608;1.458;2023-10-19T01:46:22;97467.41;;;19.02;100.00
49723;BME280;43484;43.608;1.458;2023-10-19T01:48:56;97458.78;;;19.01;100.00
49723;BME280;43484;43.608;1.458;2023-10-19T01:51:27;97451.66;;;19.06;100.00
49723;BME280;43484;43.608;1.458;2023-10-19T01:53:56;97452.38;;;19.10;100.00
49723;BME280;43484;43.608;1.458;2023-10-19T01:56:23;97432.38;;;19.12;100.00
49723;BME280;43484;43.608;1.458;2023-10-19T01:58:51;97433.91;;;19.16;100.00
49723;BME280;43484;43.608;1.458;2023-10-19T02:01:18;97432.03;;;19.19;100.00
49723;BME280;43484;43.608;1.458;2023-10-19T02:03:58;97425.25;;;19.17;100.00
49723;BME280;43484;43.608;1.458;2023-10-19T02:06:28;97413.22;;;19.14;100.00
49723;BME280;43484;43.608;1.458;2023-10-19T02:09:07;97403.69;;;19.15;100.00
49723;BME280;43484;43.608;1.458;2023-10-19T02:11:52;97385.38;;;19.18;100.00
49723;BME280;43484;43.608;1.458;2023-10-19T02:14:26;97369.81;;;19.18;100.00
49723;BME280;43484;43.608;1.458;2023-10-19T02:16:59;97371.63;;;19.16;100.00
49723;BME280;43484;43.608;1.458;2023-10-19T02:19:27;97370.34;;;19.06;100.00
49723;BME280;43484;43.608;1.458;2023-10-19T02:21:57;97361.38;;;19.13;100.00
49723;BME280;43484;43.608;1.458;2023-10-19T02:24:25;97356.06;;;19.16;100.00
49723;BME280;43484;43.608;1.458;2023-10-19T02:26:56;97347.38;;;19.17;100.00
49723;BME280;43484;43.608;1.458;2023-10-19T02:29:23;97336.16;;;19.16;100.00
49723;BME280;43484;43.608;1.458;2023-10-19T02:31:50;97323.09;;;19.18;100.00
49723;BME280;43484;43.608;1.458;2023-10-19T02:34:17;97325.63;;;19.19;100.00
49723;BME280;43484;43.608;1.458;2023-10-19T02:36:45;97327.31;;;19.20;100.00
49723;BME280;43484;43.608;1.458;2023-10-19T02:39:17;97320.34;;;19.21;100.00
49723;BME280;43484;43.608;1.458;2023-10-19T02:41:48;97310.75;;;19.23;100.00
49723;BME280;43484;43.608;1.458;2023-10-19T02:44:19;97293.59;;;19.20;100.00
49723;BME280;43484;43.608;1.458;2023-10-19T02:46:47;97286.63;;;19.21;100.00
49723;BME280;43484;43.608;1.458;2023-10-19T02:49:15;97284.78;;;19.23;100.00
49723;BME280;43484;43.608;1.458;2023-10-19T02:51:47;97288.47;;;19.19;100.00
49723;BME280;43484;43.608;1.458;2023-10-19T02:54:16;97305.72;;;19.20;100.00
49723;BME280;43484;43.608;1.458;2023-10-19T02:56:51;97293.66;;;19.19;100.00
49723;BME280;43484;43.608;1.458;2023-10-19T02:59:21;97302.97;;;19.23;100.00
49723;BME280;43484;43.608;1.458;2023-10-19T03:01:51;97288.47;;;19.19;100.00
49723;BME280;43484;43.608;1.458;2023-10-19T03:04:19;97289.22;;;19.21;100.00
49723;BME280;43484;43.608;1.458;2023-10-19T03:06:47;97286.50;;;19.24;100.00
49723;BME280;43484;43.608;1.458;2023-10-19T03:09:14;97280.47;;;19.23;100.00
49723;BME280;43484;43.608;1.458;2023-10-19T03:11:50;97263.06;;;19.25;100.00
49723;BME280;43484;43.608;1.458;2023-10-19T03:14:21;97261.34;;;19.24;100.00
49723;BME280;43484;43.608;1.458;2023-10-19T03:16:54;97262.03;;;19.29;100.00
49723;BME280;43484;43.608;1.458;2023-10-19T03:19:24;97263.84;;;19.27;100.00
49723;BME280;43484;43.608;1.458;2023-10-19T03:21:52;97257.78;;;19.27;100.00
49723;BME280;43484;43.608;1.458;2023-10-19T03:24:19;97265.31;;;19.33;100.00
49723;BME280;43484;43.608;1.458;2023-10-19T03:27:08;97266.25;;;19.32;100.00
49723;BME280;43484;43.608;1.458;2023-10-19T03:29:48;97267.09;;;19.32;100.00
49723;BME280;43484;43.608;1.458;2023-10-19T03:32:21;97261.91;;;19.32;100.00
49723;BME280;43484;43.608;1.458;2023-10-19T03:34:55;97261.06;;;19.32;100.00
49723;BME280;43484;43.608;1.458;2023-10-19T03:37:23;97257.53;;;19.33;100.00
49723;BME280;43484;43.608;1.458;2023-10-19T03:39:52;97261.53;;;19.40;100.00
49723;BME280;43484;43.608;1.458;2023-10-19T03:42:23;97273.59;;;19.41;100.00
49723;BME280;43484;43.608;1.458;2023-10-19T03:44:53;97264.97;;;19.40;100.00
49723;BME280;43484;43.608;1.458;2023-10-19T03:47:21;97266.81;;;19.38;100.00
49723;BME280;43484;43.608;1.458;2023-10-19T03:49:52;97266.59;;;19.43;100.00
49723;BME280;43484;43.608;1.458;2023-10-19T03:52:19;97263.09;;;19.44;100.00
49723;BME280;43484;43.608;1.458;2023-10-19T03:54:48;97260.50;;;19.44;100.00
49723;BME280;43484;43.608;1.458;2023-10-19T03:57:16;97257.13;;;19.42;100.00
49723;BME280;43484;43.608;1.458;2023-10-19T03:59:47;97255.31;;;19.44;100.00
49723;BME280;43484;43.608;1.458;2023-10-19T04:02:17;97256.97;;;19.45;100.00
49723;BME280;43484;43.608;1.458;2023-10-19T04:04:47;97267.44;;;19.43;100.00
49723;BME280;43484;43.608;1.458;2023-10-19T04:07:15;97271.84;;;19.41;100.00
49723;BME280;43484;43.608;1.458;2023-10-19T04:09:45;97263.00;;;19.45;100.00
49723;BME280;43484;43.608;1.458;2023-10-19T04:12:30;97270.94;;;19.42;100.00
49723;BME280;43484;43.608;1.458;2023-10-19T04:14:58;97274.22;;;19.46;100.00
49723;BME280;43484;43.608;1.458;2023-10-19T04:17:52;97275.16;;;19.45;100.00
49723;BME280;43484;43.608;1.458;2023-10-19T04:20:19;97268.97;;;19.47;100.00
49723;BME280;43484;43.608;1.458;2023-10-19T04:22:47;97255.94;;;19.49;100.00
49723;BME280;43484;43.608;1.458;2023-10-19T04:25:17;97245.66;;;19.46;100.00
49723;BME280;43484;43.608;1.458;2023-10-19T04:27:49;97241.47;;;19.43;100.00
49723;BME280;43484;43.608;1.458;2023-10-19T04:30:16;97231.78;;;19.47;100.00
49723;BME280;43484;43.608;1.458;2023-10-19T04:32:43;97223.28;;;19.43;100.00
49723;BME280;43484;43.608;1.458;2023-10-19T04:35:11;97219.91;;;19.41;100.00
49723;BME280;43484;43.608;1.458;2023-10-19T04:37:40;97224.25;;;19.41;100.00
49723;BME280;43484;43.608;1.458;2023-10-19T04:40:10;97232.81;;;19.43;100.00
49723;BME280;43484;43.608;1.458;2023-10-19T04:42:39;97225.88;;;19.43;100.00
49723;BME280;43484;43.608;1.458;2023-10-19T04:45:06;97244.00;;;19.45;100.00
49723;BME280;43484;43.608;1.458;2023-10-19T04:47:33;97245.72;;;19.44;100.00
49723;BME280;43484;43.608;1.458;2023-10-19T04:50:03;97254.22;;;19.48;100.00
49723;BME280;43484;43.608;1.458;2023-10-19T04:52:30;97263.63;;;19.50;100.00
49723;BME280;43484;43.608;1.458;2023-10-19T04:54:58;97281.66;;;19.53;100.00
49723;BME280;43484;43.608;1.458;2023-10-19T04:57:25;97285.84;;;19.56;100.00
49723;BME280;43484;43.608;1.458;2023-10-19T04:59:54;97295.44;;;19.55;100.00
49723;BME280;43484;43.608;1.458;2023-10-19T05:02:22;97307.56;;;19.55;100.00
49723;BME280;43484;43.608;1.458;2023-10-19T05:04:49;97321.53;;;19.52;100.00
49723;BME280;43484;43.608;1.458;2023-10-19T05:07:16;97315.72;;;19.47;100.00
49723;BME280;43484;43.608;1.458;2023-10-19T05:09:45;97282.63;;;19.51;100.00
49723;BME280;43484;43.608;1.458;2023-10-19T05:12:14;97288.69;;;19.51;100.00
49723;BME280;43484;43.608;1.458;2023-10-19T05:14:42;97299.16;;;19.50;100.00
49723;BME280;43484;43.608;1.458;2023-10-19T05:17:09;97307.50;;;19.56;100.00
49723;BME280;43484;43.608;1.458;2023-10-19T05:19:37;97320.78;;;19.50;100.00
49723;BME280;43484;43.608;1.458;2023-10-19T05:22:08;97324.19;;;19.51;100.00
49723;BME280;43484;43.608;1.458;2023-10-19T05:24:35;97328.50;;;19.52;100.00
49723;BME280;43484;43.608;1.458;2023-10-19T05:27:02;97319.13;;;19.48;100.00
49723;BME280;43484;43.608;1.458;2023-10-19T05:29:31;97313.75;;;19.52;100.00
49723;BME280;43484;43.608;1.458;2023-10-19T05:31:59;97321.88;;;19.45;100.00
49723;BME280;43484;43.608;1.458;2023-10-19T05:34:27;97317.53;;;19.45;100.00
49723;BME280;43484;43.608;1.458;2023-10-19T05:36:56;97318.50;;;19.43;100.00
49723;BME280;43484;43.608;1.458;2023-10-19T05:39:25;97313.69;;;19.35;100.00
49723;BME280;43484;43.608;1.458;2023-10-19T05:41:55;97277.25;;;19.37;100.00
49723;BME280;43484;43.608;1.458;2023-10-19T05:44:22;97266.94;;;19.35;100.00
49723;BME280;43484;43.608;1.458;2023-10-19T05:46:51;97252.53;;;19.28;100.00
49723;BME280;43484;43.608;1.458;2023-10-19T05:49:18;97229.97;;;19.30;100.00
49723;BME280;43484;43.608;1.458;2023-10-19T05:51:46;97233.66;;;19.25;100.00
49723;BME280;43484;43.608;1.458;2023-10-19T05:54:13;97222.66;;;19.20;100.00
49723;BME280;43484;43.608;1.458;2023-10-19T05:56:39;97189.91;;;19.17;100.00
49723;BME280;43484;43.608;1.458;2023-10-19T05:59:06;97192.69;;;19.13;100.00
49723;BME280;43484;43.608;1.458;2023-10-19T06:01:33;97170.50;;;19.07;100.00
49723;BME280;43484;43.608;1.458;2023-10-19T06:04:01;97172.22;;;19.07;100.00
49723;BME280;43484;43.608;1.458;2023-10-19T06:06:29;97169.78;;;19.04;100.00
49723;BME280;43484;43.608;1.458;2023-10-19T06:08:56;97163.03;;;19.00;100.00
49723;BME280;43484;43.608;1.458;2023-10-19T06:11:23;97150.16;;;18.98;100.00
49723;BME280;43484;43.608;1.458;2023-10-19T06:13:50;97152.97;;;18.94;100.00
49723;BME280;43484;43.608;1.458;2023-10-19T06:16:16;97150.44;;;18.92;100.00
49723;BME280;43484;43.608;1.458;2023-10-19T06:18:43;97134.03;;;18.92;100.00
49723;BME280;43484;43.608;1.458;2023-10-19T06:21:10;97118.72;;;18.86;100.00
49723;BME280;43484;43.608;1.458;2023-10-19T06:23:39;97120.44;;;18.87;100.00
49723;BME280;43484;43.608;1.458;2023-10-19T06:26:11;97116.34;;;18.81;100.00
49723;BME280;43484;43.608;1.458;2023-10-19T06:28:39;97114.63;;;18.82;100.00
49723;BME280;43484;43.608;1.458;2023-10-19T06:31:08;97113.69;;;18.83;100.00
49723;BME280;43484;43.608;1.458;2023-10-19T06:33:35;97118.06;;;18.82;100.00
49723;BME280;43484;43.608;1.458;2023-10-19T06:36:08;97123.25;;;18.82;100.00
49723;BME280;43484;43.608;1.458;2023-10-19T06:38:35;97126.88;;;18.78;100.00
49723;BME280;43484;43.608;1.458;2023-10-19T06:41:12;97131.91;;;18.81;100.00
49723;BME280;43484;43.608;1.458;2023-10-19T06:43:40;97127.72;;;18.79;100.00
49723;BME280;43484;43.608;1.458;2023-10-19T06:46:08;97133.25;;;18.90;100.00
49723;BME280;43484;43.608;1.458;2023-10-19T06:48:39;97148.75;;;18.91;100.00
49723;BME280;43484;43.608;1.458;2023-10-19T06:51:06;97149.22;;;18.99;100.00
49723;BME280;43484;43.608;1.458;2023-10-19T06:53:36;97163.66;;;19.05;100.00
49723;BME280;43484;43.608;1.458;2023-10-19T06:56:04;97161.94;;;19.05;100.00
49723;BME280;43484;43.608;1.458;2023-10-19T06:58:31;97162.47;;;19.12;100.00
49723;BME280;43484;43.608;1.458;2023-10-19T07:00:58;97162.47;;;19.12;100.00
49723;BME280;43484;43.608;1.458;2023-10-19T07:03:32;97161.41;;;19.16;100.00
49723;BME280;43484;43.608;1.458;2023-10-19T07:06:00;97161.22;;;19.20;100.00
49723;BME280;43484;43.608;1.458;2023-10-19T07:08:37;97157.47;;;19.26;100.00
49723;BME280;43484;43.608;1.458;2023-10-19T07:11:05;97167.78;;;19.27;100.00
49723;BME280;43484;43.608;1.458;2023-10-19T07:13:33;97174.72;;;19.27;100.00
49723;BME280;43484;43.608;1.458;2023-10-19T07:16:01;97165.91;;;19.31;100.00
49723;BME280;43484;43.608;1.458;2023-10-19T07:18:30;97181.44;;;19.32;100.00
49723;BME280;43484;43.608;1.458;2023-10-19T07:20:57;97182.25;;;19.33;100.00
49723;BME280;43484;43.608;1.458;2023-10-19T07:23:30;97189.88;;;19.36;100.00
49723;BME280;43484;43.608;1.458;2023-10-19T07:25:57;97206.94;;;19.41;100.00
49723;BME280;43484;43.608;1.458;2023-10-19T07:28:27;97218.09;;;19.43;100.00
49723;BME280;43484;43.608;1.458;2023-10-19T07:30:54;97216.34;;;19.44;100.00
49723;BME280;43484;43.608;1.458;2023-10-19T07:33:22;97220.63;;;19.45;100.00
49723;BME280;43484;43.608;1.458;2023-10-19T07:35:50;97224.88;;;19.46;100.00
49723;BME280;43484;43.608;1.458;2023-10-19T07:38:26;97227.34;;;19.49;100.00
49723;BME280;43484;43.608;1.458;2023-10-19T07:40:55;97229.09;;;19.48;100.00
49723;BME280;43484;43.608;1.458;2023-10-19T07:43:21;97232.56;;;19.49;100.00
49723;BME280;43484;43.608;1.458;2023-10-19T07:45:49;97235.63;;;19.57;100.00
49723;BME280;43484;43.608;1.458;2023-10-19T07:48:16;97239.88;;;19.58;100.00
49723;BME280;43484;43.608;1.458;2023-10-19T07:50:43;97249.47;;;19.57;100.00
49723;BME280;43484;43.608;1.458;2023-10-19T07:53:11;97260.50;;;19.61;100.00
49723;BME280;43484;43.608;1.458;2023-10-19T07:55:38;97272.47;;;19.65;100.00
49723;BME280;43484;43.608;1.458;2023-10-19T07:58:05;97291.56;;;19.64;100.00
49723;BME280;43484;43.608;1.458;2023-10-19T08:00:35;97307.41;;;19.58;100.00
49723;BME280;43484;43.608;1.458;2023-10-19T08:03:03;97302.22;;;19.58;100.00
49723;BME280;43484;43.608;1.458;2023-10-19T08:05:31;97315.00;;;19.62;100.00
49723;BME280;43484;43.608;1.458;2023-10-19T08:08:00;97313.72;;;19.71;100.00
49723;BME280;43484;43.608;1.458;2023-10-19T08:10:27;97300.53;;;19.75;100.00
49723;BME280;43484;43.608;1.458;2023-10-19T08:12:54;97309.50;;;19.87;100.00
49723;BME280;43484;43.608;1.458;2023-10-19T08:15:22;97324.91;;;20.09;100.00
49723;BME280;43484;43.608;1.458;2023-10-19T08:17:50;97357.44;;;20.17;100.00
49723;BME280;43484;43.608;1.458;2023-10-19T08:20:17;97385.56;;;20.26;100.00
49723;BME280;43484;43.608;1.458;2023-10-19T08:22:58;97400.91;;;20.32;100.00
49723;BME280;43484;43.608;1.458;2023-10-19T08:25:25;97385.72;;;20.23;100.00
49723;BME280;43484;43.608;1.458;2023-10-19T08:28:15;97370.28;;;20.20;100.00
49723;BME280;43484;43.608;1.458;2023-10-19T08:30:42;97377.16;;;20.21;100.00
49723;BME280;43484;43.608;1.458;2023-10-19T08:33:11;97366.00;;;20.19;100.00
49723;BME280;43484;43.608;1.458;2023-10-19T08:35:40;97382.34;;;20.21;100.00
49723;BME280;43484;43.608;1.458;2023-10-19T08:38:07;97380.53;;;20.23;100.00
49723;BME280;43484;43.608;1.458;2023-10-19T08:40:38;97367.38;;;20.26;100.00
49723;BME280;43484;43.608;1.458;2023-10-19T08:43:06;97361.13;;;20.30;100.00
49723;BME280;43484;43.608;1.458;2023-10-19T08:45:40;97362.34;;;20.23;100.00
49723;BME280;43484;43.608;1.458;2023-10-19T08:48:08;97364.13;;;20.23;100.00
49723;BME280;43484;43.608;1.458;2023-10-19T08:50:36;97375.34;;;20.23;100.00
49723;BME280;43484;43.608;1.458;2023-10-19T08:53:07;97360.66;;;20.22;100.00
49723;BME280;43484;43.608;1.458;2023-10-19T08:55:41;97352.69;;;20.25;100.00
49723;BME280;43484;43.608;1.458;2023-10-19T08:58:16;97337.19;;;20.24;100.00
49723;BME280;43484;43.608;1.458;2023-10-19T09:00:49;97320.13;;;20.18;100.00
49723;BME280;43484;43.608;1.458;2023-10-19T09:03:21;97317.59;;;20.17;100.00
49723;BME280;43484;43.608;1.458;2023-10-19T09:05:49;97305.78;;;20.10;100.00
49723;BME280;43484;43.608;1.458;2023-10-19T09:08:19;97298.53;;;20.16;100.00
49723;BME280;43484;43.608;1.458;2023-10-19T09:10:50;97305.38;;;20.19;100.00
49723;BME280;43484;43.608;1.458;2023-10-19T09:13:20;97318.66;;;20.30;100.00
49723;BME280;43484;43.608;1.458;2023-10-19T09:15:49;97330.94;;;20.28;100.00
49723;BME280;43484;43.608;1.458;2023-10-19T09:18:24;97339.09;;;20.37;100.00
49723;BME280;43484;43.608;1.458;2023-10-19T09:20:54;97341.00;;;20.34;100.00
49723;BME280;43484;43.608;1.458;2023-10-19T09:23:48;97353.00;;;20.36;100.00
49723;BME280;43484;43.608;1.458;2023-10-19T09:26:15;97351.34;;;20.35;100.00
49723;BME280;43484;43.608;1.458;2023-10-19T09:28:46;97342.84;;;20.32;100.00
49723;BME280;43484;43.608;1.458;2023-10-19T09:31:14;97328.25;;;20.29;100.00
49723;BME280;43484;43.608;1.458;2023-10-19T09:33:47;97328.09;;;20.32;100.00
49723;BME280;43484;43.608;1.458;2023-10-19T09:36:15;97325.41;;;20.34;100.00
49723;BME280;43484;43.608;1.458;2023-10-19T09:41:19;97301.31;;;20.30;100.00
49723;BME280;43484;43.608;1.458;2023-10-19T09:43:48;97296.81;;;20.34;100.00
49723;BME280;43484;43.608;1.458;2023-10-19T09:46:27;97300.94;;;20.21;100.00
49723;BME280;43484;43.608;1.458;2023-10-19T09:48:55;97301.31;;;20.30;100.00
49723;BME280;43484;43.608;1.458;2023-10-19T09:51:23;97293.06;;;20.22;100.00
49723;BME280;43484;43.608;1.458;2023-10-19T09:56:41;97277.38;;;20.24;100.00
49723;BME280;43484;43.608;1.458;2023-10-19T09:59:40;97262.31;;;20.30;100.00
49723;BME280;43484;43.608;1.458;2023-10-19T10:02:07;97265.78;;;20.31;100.00
49723;BME280;43484;43.608;1.458;2023-10-19T10:04:35;97258.50;;;20.37;100.00
49723;BME280;43484;43.608;1.458;2023-10-19T10:07:04;97253.91;;;20.42;100.00
49723;BME280;43484;43.608;1.458;2023-10-19T10:09:37;97255.19;;;20.51;100.00
49723;BME280;43484;43.608;1.458;2023-10-19T10:12:24;97267.88;;;20.57;100.00
49723;BME280;43484;43.608;1.458;2023-10-19T10:14:59;97268.47;;;20.62;100.00
49723;BME280;43484;43.608;1.458;2023-10-19T10:17:28;97284.09;;;20.62;100.00
49723;BME280;43484;43.608;1.458;2023-10-19T10:22:44;97277.03;;;20.81;100.00
49723;BME280;43484;43.608;1.458;2023-10-19T10:25:25;97278.69;;;20.82;100.00
49723;BME280;43484;43.608;1.458;2023-10-19T10:27:54;97276.78;;;20.85;100.00
49723;BME280;43484;43.608;1.458;2023-10-19T10:30:21;97274.63;;;20.93;100.00
49723;BME280;43484;43.608;1.458;2023-10-19T10:32:53;97268.06;;;20.86;100.00
49723;BME280;43484;43.608;1.458;2023-10-19T10:38:06;97281.66;;;21.08;100.00
49723;BME280;43484;43.608;1.458;2023-10-19T10:40:51;97301.06;;;21.18;100.00
49723;BME280;43484;43.608;1.458;2023-10-19T10:43:19;97308.66;;;21.23;100.00
49723;BME280;43484;43.608;1.458;2023-10-19T10:45:46;97310.91;;;21.29;100.00
49723;BME280;43484;43.608;1.458;2023-10-19T10:48:18;97323.84;;;21.31;100.00
49723;BME280;43484;43.608;1.458;2023-10-19T10:50:48;97328.97;;;21.32;100.00
49723;BME280;43484;43.608;1.458;2023-10-19T10:53:16;97334.69;;;21.39;100.00
49723;BME280;43484;43.608;1.458;2023-10-19T10:55:43;97342.13;;;21.46;100.00
49723;BME280;43484;43.608;1.458;2023-10-19T10:58:17;97348.91;;;21.49;100.00
49723;BME280;43484;43.608;1.458;2023-10-19T11:00:49;97343.47;;;21.69;100.00
49723;BME280;43484;43.608;1.458;2023-10-19T11:03:19;97332.66;;;21.76;100.00
49723;BME280;43484;43.608;1.458;2023-10-19T11:05:45;97337.63;;;21.81;100.00
49723;BME280;43484;43.608;1.458;2023-10-19T11:08:15;97338.56;;;21.80;100.00
49723;BME280;43484;43.608;1.458;2023-10-19T11:10:49;97340.91;;;21.84;100.00
49723;BME280;43484;43.608;1.458;2023-10-19T11:13:18;97345.84;;;22.04;100.00
49723;BME280;43484;43.608;1.458;2023-10-19T11:15:50;97353.28;;;22.12;100.00
49723;BME280;43484;43.608;1.458;2023-10-19T11:20:57;97360.16;;;22.13;100.00
49723;BME280;43484;43.608;1.458;2023-10-19T11:23:58;97358.97;;;22.03;100.00
49723;BME280;43484;43.608;1.458;2023-10-19T11:26:25;97356.38;;;22.03;100.00
49723;BME280;43484;43.608;1.458;2023-10-19T11:29:02;97341.59;;;22.03;100.00
49723;BME280;43484;43.608;1.458;2023-10-19T11:31:32;97337.63;;;22.12;100.00
49723;BME280;43484;43.608;1.458;2023-10-19T11:34:04;97330.38;;;22.17;100.00
49723;BME280;43484;43.608;1.458;2023-10-19T11:36:33;97330.50;;;22.29;100.00
49723;BME280;43484;43.608;1.458;2023-10-19T11:39:00;97317.38;;;22.31;100.00
49723;BME280;43484;43.608;1.458;2023-10-19T11:41:27;97300.81;;;22.32;100.00
49723;BME280;43484;43.608;1.458;2023-10-19T11:43:54;97297.66;;;22.41;100.00
49723;BME280;43484;43.608;1.458;2023-10-19T11:46:23;97292.22;;;22.60;100.00
49723;BME280;43484;43.608;1.458;2023-10-19T11:48:52;97288.06;;;22.71;100.00
49723;BME280;43484;43.608;1.458;2023-10-19T11:51:19;97288.34;;;22.81;100.00
49723;BME280;43484;43.608;1.458;2023-10-19T11:53:46;97293.13;;;22.88;100.00
49723;BME280;43484;43.608;1.458;2023-10-19T11:56:13;97291.44;;;23.01;100.00
49723;BME280;43484;43.608;1.458;2023-10-19T11:58:42;97283.41;;;23.04;100.00
49723;BME280;43484;43.608;1.458;2023-10-19T12:01:14;97297.69;;;23.13;100.00
49723;BME280;43484;43.608;1.458;2023-10-19T12:03:44;97278.50;;;23.14;100.00
49723;BME280;43484;43.608;1.458;2023-10-19T12:06:15;97271.22;;;23.19;100.00
49723;BME280;43484;43.608;1.458;2023-10-19T12:08:46;97262.44;;;23.34;100.00
49723;BME280;43484;43.608;1.458;2023-10-19T12:11:13;97261.84;;;23.43;100.00
49723;BME280;43484;43.608;1.458;2023-10-19T12:13:46;97267.28;;;23.40;100.00
49723;BME280;43484;43.608;1.458;2023-10-19T12:16:15;97262.34;;;23.35;100.00
49723;BME280;43484;43.608;1.458;2023-10-19T12:18:43;97262.25;;;23.37;100.00
49723;BME280;43484;43.608;1.458;2023-10-19T12:21:10;97249.84;;;23.40;100.00
49723;BME280;43484;43.608;1.458;2023-10-19T12:23:42;97243.47;;;23.44;100.00
49723;BME280;43484;43.608;1.458;2023-10-19T12:26:09;97236.09;;;23.51;100.00
49723;BME280;43484;43.608;1.458;2023-10-19T12:28:40;97237.75;;;23.52;100.00
49723;BME280;43484;43.608;1.458;2023-10-19T12:31:08;97245.72;;;23.50;100.00
49723;BME280;43484;43.608;1.458;2023-10-19T12:33:38;97236.72;;;23.54;100.00
49723;BME280;43484;43.608;1.458;2023-10-19T12:36:05;97236.25;;;23.62;100.00
49723;BME280;43484;43.608;1.458;2023-10-19T12:38:58;97240.06;;;23.56;100.00
49723;BME280;43484;43.608;1.458;2023-10-19T12:41:25;97231.88;;;23.63;100.00
49723;BME280;43484;43.608;1.458;2023-10-19T12:43:52;97220.31;;;23.52;100.00
49723;BME280;43484;43.608;1.458;2023-10-19T12:46:24;97220.66;;;23.61;100.00
49723;BME280;43484;43.608;1.458;2023-10-19T12:49:06;97215.22;;;23.64;100.00
49723;BME280;43484;43.608;1.458;2023-10-19T12:51:40;97204.03;;;23.62;100.00
49723;BME280;43484;43.608;1.458;2023-10-19T12:54:08;97197.91;;;23.48;100.00
49723;BME280;43484;43.608;1.458;2023-10-19T12:56:37;97195.88;;;23.39;100.00
49723;BME280;43484;43.608;1.458;2023-10-19T12:59:05;97197.81;;;23.50;100.00
49723;BME280;43484;43.608;1.458;2023-10-19T13:01:34;97202.94;;;23.51;100.00
49723;BME280;43484;43.608;1.458;2023-10-19T13:04:02;97217.31;;;23.58;100.00
49723;BME280;43484;43.608;1.458;2023-10-19T13:06:40;97225.88;;;23.61;100.00
49723;BME280;43484;43.608;1.458;2023-10-19T13:09:07;97219.28;;;23.55;100.00
49723;BME280;43484;43.608;1.458;2023-10-19T13:11:35;97222.84;;;23.40;100.00
49723;BME280;43484;43.608;1.458;2023-10-19T13:14:02;97218.75;;;23.22;100.00
49723;BME280;43484;43.608;1.458;2023-10-19T13:16:32;97236.00;;;23.24;100.00
49723;BME280;43484;43.608;1.458;2023-10-19T13:18:59;97234.63;;;23.19;100.00
49723;BME280;43484;43.608;1.458;2023-10-19T13:21:35;97209.72;;;23.13;100.00
49723;BME280;43484;43.608;1.458;2023-10-19T13:24:02;97196.75;;;23.12;100.00